Terminal Aerodrome Forecast
Issued by NWS

Current Version | Previous Version | Graphics & Text | Print | Product List | Glossary On
Versions: 1 2 3 4 5 6 7 8 9 10 11 12 13 14 15
000
FTUS41 KRNK 230940 AAA
TAFLWB
TAF AMD
KLWB 230940Z 2310/2406 00000KT 1/4SM FG OVC001
     FM231300 00000KT P6SM FEW150
     FM231600 31004KT P6SM SCT040
     FM232300 00000KT P6SM SCT250=

USA.gov is the U.S. government's official web portal to all federal, state and local government web resources and services.